Chesterfield Township, Michigan
Current Conditions -  °F | °C
As of 11:55 AM on Saturday 22 Nov 2014 (Local Time) from KMTC Reporting Station
Overcast Overcast  
Wind Chill: 31°   Ceiling: 1000
Heat Index: 37°   Visibility: 7mi
Dew Point: 37°   Wind: 8mph
Humidity: 97%   Direction: 210°SSW
Pressure: 29.99"   Gusts: 25mph
Location:  42.6875°N, 82.8325°W
Report Text: KMTC 221655Z 21007G22KT 7SM BKN010 OVC015 03/03 A2999 RMK PRESFR SLP172 T00290025
Loading
Personal Weather Stations






























Interactive Weather Map New forecast layout! Learn more

10-Day Weather Forecast

Advertisements
Track Severe Weather on mobile